Time;durP1;ratioP1;P1;durP2;ratioP2;P2;SDS_P1;SDS_P2;PMS_P1;PMS_P2;Temp;Humidity;BMP_temperature;BMP_pressure;BME280_temperature;BME280_humidity;BME280_pressure;Samples;Min_cycle;Max_cycle;Signal;HPM_P1;HPM_P2
2021/12/02 05:32:21;;;;;;;;;2.50;1.00;;;;;7.42;63.81;100285.81;5037717;23;45284;-57
2021/12/02 05:34:48;;;;;;;;;2.75;1.25;;;;;7.37;63.91;100298.47;4981812;28;45313;-59
2021/12/02 05:37:14;;;;;;;;;1.00;1.00;;;;;7.36;63.54;100296.75;4981725;28;47159;-58
2021/12/02 05:39:40;;;;;;;;;4.75;0.00;;;;;7.34;63.48;100293.25;4981752;28;45345;-58
2021/12/02 05:42:05;;;;;;;;;1.25;1.00;;;;;7.28;63.23;100313.06;4981790;28;45246;-58
2021/12/02 05:44:31;;;;;;;;;1.00;1.00;;;;;7.19;63.56;100305.41;4981484;28;45239;-57
2021/12/02 05:46:56;;;;;;;;;1.00;1.00;;;;;7.16;63.65;100303.72;4981591;28;45985;-57
2021/12/02 05:49:21;;;;;;;;;1.00;1.00;;;;;7.09;63.49;100298.69;4981257;28;45441;-60
2021/12/02 05:51:47;;;;;;;;;1.75;0.25;;;;;6.97;63.95;100293.84;4981205;28;45366;-58
2021/12/02 05:54:12;;;;;;;;;1.00;1.00;;;;;6.99;64.08;100295.50;4981608;28;45188;-57
2021/12/02 05:56:38;;;;;;;;;1.50;1.50;;;;;6.99;63.81;100295.50;4981262;28;45932;-56
2021/12/02 05:59:03;;;;;;;;;5.00;0.75;;;;;6.97;63.77;100294.72;4981689;28;45188;-57
2021/12/02 06:01:29;;;;;;;;;1.50;1.00;;;;;7.08;64.05;100304.94;4981548;28;45359;-58
2021/12/02 06:03:54;;;;;;;;;2.00;1.00;;;;;7.10;63.26;100309.31;4981178;28;45380;-59
2021/12/02 06:06:23;;;;;;;;;0.25;0.25;;;;;7.01;63.16;100312.31;4981403;28;47202;-59
2021/12/02 06:08:48;;;;;;;;;3.00;1.50;;;;;6.98;63.15;100312.41;4981341;28;45314;-57
2021/12/02 06:11:14;;;;;;;;;3.75;1.00;;;;;6.95;63.43;100311.69;4981634;28;45285;-58
2021/12/02 06:13:40;;;;;;;;;2.00;1.25;;;;;6.96;63.35;100324.97;4981597;28;45230;-57
2021/12/02 06:16:06;;;;;;;;;3.00;1.50;;;;;6.94;63.21;100326.81;4981241;28;45222;-58
2021/12/02 06:18:31;;;;;;;;;7.00;1.25;;;;;6.88;63.07;100324.38;4981397;28;45222;-58
2021/12/02 06:20:56;;;;;;;;;1.25;1.25;;;;;6.81;63.78;100322.84;4981436;28;45254;-58
2021/12/02 06:23:22;;;;;;;;;1.25;1.00;;;;;6.74;63.49;100326.66;4981498;28;45308;-60
2021/12/02 06:25:48;;;;;;;;;0.00;0.00;;;;;6.68;63.61;100329.56;4981964;28;46661;-58
2021/12/02 06:28:15;;;;;;;;;2.75;0.00;;;;;6.66;63.80;100329.63;4982298;28;45429;-58
2021/12/02 06:30:41;;;;;;;;;1.00;1.00;;;;;6.62;64.06;100321.81;4980761;28;45334;-55
2021/12/02 06:33:07;;;;;;;;;1.75;1.75;;;;;6.62;64.10;100328.00;4980980;28;47108;-58
2021/12/02 06:35:32;;;;;;;;;1.25;1.25;;;;;6.58;63.42;100314.84;4980720;28;45373;-56
2021/12/02 06:37:58;;;;;;;;;1.75;0.00;;;;;6.65;63.32;100313.69;4981046;28;45304;-59
2021/12/02 06:40:24;;;;;;;;;1.00;1.00;;;;;6.62;63.13;100317.34;4980497;28;45339;-58
2021/12/02 06:42:49;;;;;;;;;1.50;0.50;;;;;6.58;63.45;100323.69;4980692;28;45635;-58
2021/12/02 06:45:15;;;;;;;;;2.00;1.00;;;;;6.58;63.39;100338.81;4980499;28;45325;-58
2021/12/02 06:47:41;;;;;;;;;2.75;1.00;;;;;6.51;63.36;100327.50;4980734;28;45346;-59
2021/12/02 06:50:12;;;;;;;;;2.00;1.00;;;;;6.54;63.35;100335.41;4980642;28;45428;-57
2021/12/02 06:52:38;;;;;;;;;7.00;1.50;;;;;6.51;63.39;100350.59;4980656;28;45302;-58
2021/12/02 06:55:03;;;;;;;;;1.00;1.00;;;;;6.41;63.84;100334.94;4980803;28;46335;-58
2021/12/02 06:57:30;;;;;;;;;4.00;1.00;;;;;6.53;63.79;100351.44;4980599;28;45321;-59
2021/12/02 06:59:55;;;;;;;;;2.50;2.00;;;;;6.53;63.86;100362.94;4980847;28;45175;-58
2021/12/02 07:02:21;;;;;;;;;0.75;0.75;;;;;6.56;63.63;100369.94;4979207;28;45584;-59
2021/12/02 07:04:48;;;;;;;;;2.00;1.00;;;;;6.56;63.63;100357.50;4980452;28;47031;-58
2021/12/02 07:07:15;;;;;;;;;1.00;1.00;;;;;6.64;64.12;100370.53;4980561;28;45362;-59
2021/12/02 07:09:41;;;;;;;;;3.75;1.00;;;;;6.75;62.97;100389.69;4980961;28;45294;-58
2021/12/02 07:12:07;;;;;;;;;3.25;1.00;;;;;6.79;63.07;100396.66;4980415;28;46209;-58
2021/12/02 07:14:32;;;;;;;;;1.00;1.00;;;;;6.86;62.84;100398.16;4979118;28;46190;-58
2021/12/02 07:16:58;;;;;;;;;1.50;0.75;;;;;6.88;62.21;100392.78;4980166;28;45366;-59
2021/12/02 07:19:24;;;;;;;;;3.00;2.00;;;;;6.86;61.97;100386.63;4980432;28;45309;-58
2021/12/02 07:21:49;;;;;;;;;4.00;0.00;;;;;6.89;61.22;100387.38;4980313;28;45499;-59
2021/12/02 07:24:16;;;;;;;;;0.00;0.00;;;;;6.90;61.14;100396.25;4980703;28;46119;-59
2021/12/02 07:26:43;;;;;;;;;5.50;1.00;;;;;6.98;61.07;100412.81;4980444;28;45242;-59
2021/12/02 07:29:10;;;;;;;;;1.25;1.25;;;;;7.01;60.91;100418.91;4980479;28;45342;-59
2021/12/02 07:31:38;;;;;;;;;2.50;2.00;;;;;7.01;61.56;100415.38;4979674;28;45406;-59
2021/12/02 07:34:03;;;;;;;;;3.00;0.25;;;;;6.96;61.14;100426.22;4980094;28;45442;-59
2021/12/02 07:36:33;;;;;;;;;0.75;0.75;;;;;6.89;61.77;100423.84;4979992;28;45467;-59
2021/12/02 07:39:01;;;;;;;;;4.75;1.00;;;;;6.87;61.47;100428.34;4980290;28;45379;-57
2021/12/02 07:41:27;;;;;;;;;1.00;1.00;;;;;6.77;61.78;100417.16;4978880;28;45558;-58
2021/12/02 07:43:52;;;;;;;;;0.75;0.75;;;;;6.73;61.44;100415.50;4980308;28;46244;-58
2021/12/02 07:46:17;;;;;;;;;3.00;1.00;;;;;6.40;61.98;100377.59;4979918;28;45373;-58
2021/12/02 07:48:43;;;;;;;;;2.25;2.25;;;;;6.61;62.34;100408.81;4980103;28;45401;-58
2021/12/02 07:51:11;;;;;;;;;1.00;1.00;;;;;6.60;62.46;100411.53;4979871;28;45362;-58
2021/12/02 07:53:40;;;;;;;;;1.00;1.00;;;;;6.50;62.88;100403.00;4978881;28;46125;-58
2021/12/02 07:56:09;;;;;;;;;3.00;1.00;;;;;6.42;62.55;100405.06;4979973;28;45465;-58
2021/12/02 07:58:35;;;;;;;;;3.00;1.50;;;;;6.49;63.11;100414.56;4980107;28;45325;-59
2021/12/02 08:01:02;;;;;;;;;2.25;1.75;;;;;6.54;63.41;100423.28;4979759;28;45270;-59
2021/12/02 08:03:29;;;;;;;;;1.00;1.00;;;;;6.49;62.53;100427.00;4979701;28;45284;-59
2021/12/02 08:05:54;;;;;;;;;4.50;1.50;;;;;6.43;63.37;100426.31;4980136;28;45489;-59
2021/12/02 08:08:19;;;;;;;;;2.00;0.50;;;;;6.37;62.97;100410.56;4980820;28;45234;-58
2021/12/02 08:10:45;;;;;;;;;2.50;1.00;;;;;6.49;62.66;100427.88;4979729;28;45368;-58
2021/12/02 08:13:14;;;;;;;;;2.50;1.25;;;;;6.42;62.90;100424.56;4979637;28;46112;-57
2021/12/02 08:15:40;;;;;;;;;4.50;1.00;;;;;6.52;63.08;100451.75;4979459;28;45331;-58
2021/12/02 08:18:06;;;;;;;;;2.00;1.00;;;;;6.47;62.97;100437.69;4979624;28;45381;-57
2021/12/02 08:20:32;;;;;;;;;1.50;1.50;;;;;6.64;62.61;100450.44;4979635;28;45251;-57
2021/12/02 08:22:58;;;;;;;;;2.75;1.00;;;;;6.69;62.56;100446.72;4979656;28;46378;-59
2021/12/02 08:25:26;;;;;;;;;2.25;1.00;;;;;6.73;62.15;100455.47;4979606;28;45344;-58
2021/12/02 08:27:53;;;;;;;;;1.75;1.75;;;;;6.74;62.07;100463.41;4979904;28;45325;-59
2021/12/02 08:30:22;;;;;;;;;1.75;0.00;;;;;6.74;62.59;100462.53;4978994;28;45583;-58
2021/12/02 08:32:47;;;;;;;;;2.50;1.00;;;;;6.76;62.21;100464.22;4979570;28;47411;-59
2021/12/02 08:35:14;;;;;;;;;5.25;1.75;;;;;6.78;62.19;100467.72;4979280;28;45159;-58
2021/12/02 08:37:44;;;;;;;;;2.00;0.25;;;;;6.76;61.54;100464.22;4979516;28;45425;-58
2021/12/02 08:40:11;;;;;;;;;3.00;1.00;;;;;6.61;62.12;100461.22;4979382;28;45568;-57
2021/12/02 08:42:37;;;;;;;;;1.00;1.00;;;;;6.68;62.03;100481.41;4979348;28;46550;-58
2021/12/02 08:45:03;;;;;;;;;6.75;1.00;;;;;6.64;61.54;100485.06;4979111;28;45322;-58
2021/12/02 08:47:29;;;;;;;;;1.75;1.00;;;;;6.60;62.20;100464.81;4979541;28;45553;-59
2021/12/02 08:49:57;;;;;;;;;2.00;1.00;;;;;6.64;62.45;100490.41;4979057;28;45210;-59
2021/12/02 08:52:26;;;;;;;;;4.50;1.75;;;;;6.65;62.01;100487.69;4979394;28;46152;-59
2021/12/02 08:54:53;;;;;;;;;2.75;1.00;;;;;6.68;62.10;100494.72;4979293;28;45342;-58
2021/12/02 08:57:21;;;;;;;;;5.00;2.50;;;;;6.61;62.67;100483.41;4979363;28;45327;-58
2021/12/02 08:59:49;;;;;;;;;6.00;1.00;;;;;6.65;62.16;100497.47;4979123;28;46195;-58
2021/12/02 09:02:14;;;;;;;;;5.00;2.00;;;;;6.62;62.23;100489.59;4979083;28;46599;-58
2021/12/02 09:04:40;;;;;;;;;2.50;1.25;;;;;6.70;62.77;100496.41;4980515;28;45330;-58
2021/12/02 09:07:06;;;;;;;;;3.00;2.00;;;;;6.71;62.45;100510.59;4982795;28;45834;-58
2021/12/02 09:09:32;;;;;;;;;5.00;1.00;;;;;6.66;62.33;100507.22;4982439;28;45698;-58
2021/12/02 09:11:57;;;;;;;;;2.00;2.00;;;;;6.67;62.62;100508.94;4982289;28;47082;-58
2021/12/02 09:14:24;;;;;;;;;6.00;2.00;;;;;6.72;62.63;100523.84;4982348;28;45320;-59
2021/12/02 09:16:51;;;;;;;;;2.75;1.50;;;;;6.67;62.65;100523.16;4982448;28;45314;-58
2021/12/02 09:19:17;;;;;;;;;6.00;2.00;;;;;6.70;62.39;100528.38;4981858;28;45492;-59
2021/12/02 09:21:42;;;;;;;;;1.75;1.75;;;;;6.68;62.06;100518.69;4982070;28;46128;-58
2021/12/02 09:24:07;;;;;;;;;3.00;2.00;;;;;6.76;62.33;100525.50;4982209;28;45266;-59
2021/12/02 09:26:33;;;;;;;;;4.50;3.00;;;;;6.82;61.95;100529.75;4982389;28;45392;-58
2021/12/02 09:28:59;;;;;;;;;5.50;2.00;;;;;6.87;61.92;100534.94;4981928;28;45415;-59
2021/12/02 09:31:24;;;;;;;;;3.00;1.25;;;;;6.90;62.30;100540.13;4981686;28;46243;-58
2021/12/02 09:33:50;;;;;;;;;3.50;1.75;;;;;6.95;62.15;100535.53;4981641;28;45284;-58
2021/12/02 09:36:16;;;;;;;;;3.00;2.00;;;;;7.04;62.12;100529.91;4982364;28;45259;-59
2021/12/02 09:38:43;;;;;;;;;7.00;1.75;;;;;7.16;61.96;100540.97;4981713;28;45481;-58
2021/12/02 09:41:08;;;;;;;;;4.00;1.25;;;;;7.18;61.37;100528.47;4982629;28;46375;-58
2021/12/02 09:43:34;;;;;;;;;3.00;1.00;;;;;7.23;61.44;100520.28;4981855;28;45425;-58
2021/12/02 09:45:59;;;;;;;;;3.50;1.50;;;;;7.34;61.12;100546.59;4982131;28;45330;-59
2021/12/02 09:48:27;;;;;;;;;3.00;1.75;;;;;7.30;61.19;100547.63;4981532;28;45196;-59
2021/12/02 09:51:11;;;;;;;;;5.75;2.00;;;;;7.30;60.73;100542.31;4981758;28;46258;-59
2021/12/02 09:54:01;;;;;;;;;3.00;1.00;;;;;7.33;61.28;100548.38;4981888;28;45330;-59
2021/12/02 09:56:32;;;;;;;;;3.75;2.00;;;;;7.34;60.94;100531.47;4981215;28;45238;-58
2021/12/02 09:59:06;;;;;;;;;1.50;1.00;;;;;7.49;60.70;100549.56;4981817;28;46249;-60
2021/12/02 10:01:45;;;;;;;;;0.75;0.00;;;;;7.38;60.49;100526.91;4981597;28;46339;-58
2021/12/02 10:04:11;;;;;;;;;2.50;0.00;;;;;7.55;60.38;100552.03;4981450;28;45353;-59
2021/12/02 10:06:37;;;;;;;;;7.25;3.00;;;;;7.60;60.69;100550.06;4982094;28;45231;-58
2021/12/02 10:09:38;;;;;;;;;2.25;1.75;;;;;7.57;59.80;100530.66;4981972;28;46358;-58
2021/12/02 10:12:07;;;;;;;;;3.00;1.50;;;;;7.82;59.00;100571.50;4981683;28;46034;-56
2021/12/02 10:14:38;;;;;;;;;1.00;1.00;;;;;7.78;58.96;100550.31;4980658;28;45196;-57
2021/12/02 10:20:29;;;;;;;;;6.00;0.25;;;;;7.96;57.96;100568.28;4981130;28;45298;-58
2021/12/02 10:23:25;;;;;;;;;2.25;1.00;;;;;7.95;57.17;100550.53;4981395;28;46998;-57
2021/12/02 10:26:01;;;;;;;;;2.25;1.00;;;;;8.01;56.83;100571.66;4981177;28;45496;-58
2021/12/02 10:28:41;;;;;;;;;2.00;1.00;;;;;8.01;56.29;100558.28;4981015;28;45421;-58
2021/12/02 10:31:08;;;;;;;;;1.25;1.25;;;;;8.05;54.69;100564.41;4980855;28;45536;-58
2021/12/02 10:33:38;;;;;;;;;2.25;1.25;;;;;8.09;55.43;100560.66;4980836;28;45411;-59
2021/12/02 10:36:06;;;;;;;;;2.75;1.25;;;;;8.15;54.86;100553.31;4981279;28;45269;-58
2021/12/02 10:38:46;;;;;;;;;0.75;0.75;;;;;8.12;55.59;100580.13;4981085;28;45333;-59
2021/12/02 10:41:24;;;;;;;;;1.00;1.00;;;;;8.04;55.79;100557.31;4981249;28;45196;-59
2021/12/02 10:44:20;;;;;;;;;0.00;0.00;;;;;8.14;56.02;100556.91;4981002;28;46352;-59
2021/12/02 10:47:02;;;;;;;;;3.00;2.00;;;;;8.29;55.31;100553.63;4980868;28;45419;-58
2021/12/02 10:49:43;;;;;;;;;2.00;1.00;;;;;8.34;54.75;100541.00;4980838;28;45238;-59
2021/12/02 10:52:17;;;;;;;;;1.75;0.75;;;;;8.36;54.24;100551.63;4980951;28;45930;-59
2021/12/02 10:54:49;;;;;;;;;1.75;0.00;;;;;8.32;53.68;100545.53;4980305;28;46384;-59
2021/12/02 10:57:24;;;;;;;;;2.00;2.00;;;;;8.30;53.70;100536.69;4980523;28;45432;-58
2021/12/02 10:59:51;;;;;;;;;2.00;1.00;;;;;8.34;53.87;100524.97;4980381;28;45267;-59
2021/12/02 11:02:18;;;;;;;;;1.00;1.00;;;;;8.42;53.75;100545.19;4980297;28;45419;-60
2021/12/02 11:04:47;;;;;;;;;2.50;1.00;;;;;8.53;54.31;100543.78;4979871;28;46275;-59
2021/12/02 11:07:21;;;;;;;;;1.50;1.00;;;;;8.60;53.17;100534.59;4980397;28;45255;-60
2021/12/02 11:09:48;;;;;;;;;4.50;1.00;;;;;8.85;52.61;100525.53;4981099;28;45160;-59
2021/12/02 11:12:30;;;;;;;;;2.00;2.00;;;;;9.25;50.05;100543.44;4980375;28;45782;-58
2021/12/02 11:15:03;;;;;;;;;2.00;0.50;;;;;9.32;50.34;100513.69;4980319;28;46159;-59
2021/12/02 11:17:32;;;;;;;;;2.00;1.00;;;;;9.33;49.97;100527.94;4980298;28;45327;-59
2021/12/02 11:20:01;;;;;;;;;1.00;1.00;;;;;9.17;49.53;100521.50;4980412;28;45510;-59
2021/12/02 11:22:29;;;;;;;;;0.50;0.50;;;;;9.30;51.31;100518.22;4980210;28;45528;-59
2021/12/02 11:24:54;;;;;;;;;3.00;2.00;;;;;9.30;50.76;100517.34;4980391;28;47264;-58
2021/12/02 11:27:33;;;;;;;;;2.75;1.00;;;;;9.39;50.79;100523.16;4979986;28;45467;-59
2021/12/02 11:30:07;;;;;;;;;2.25;1.25;;;;;9.32;49.78;100519.03;4980381;28;45453;-58
2021/12/02 11:32:35;;;;;;;;;3.00;1.00;;;;;9.29;50.07;100518.28;4980189;28;45509;-58
2021/12/02 11:35:14;;;;;;;;;3.50;1.00;;;;;9.18;49.88;100524.13;4979754;28;46242;-59
2021/12/02 11:37:43;;;;;;;;;3.00;1.25;;;;;9.06;49.32;100501.44;4980040;28;45523;-59
2021/12/02 11:40:13;;;;;;;;;0.00;0.00;;;;;8.99;49.37;100517.81;4980177;28;45565;-59
2021/12/02 11:42:39;;;;;;;;;0.00;0.00;;;;;8.92;46.92;100519.03;4980205;28;45381;-58
2021/12/02 11:45:08;;;;;;;;;3.00;0.00;;;;;8.74;45.90;100509.97;4979843;28;47143;-58
2021/12/02 11:47:34;;;;;;;;;0.00;0.00;;;;;8.64;46.60;100527.31;4980278;28;45297;-58
2021/12/02 11:50:00;;;;;;;;;2.50;0.75;;;;;8.53;46.70;100522.41;4979762;28;45355;-58
2021/12/02 11:52:26;;;;;;;;;1.00;0.00;;;;;8.51;46.15;100526.06;4980119;28;45339;-59
2021/12/02 11:54:54;;;;;;;;;0.00;0.00;;;;;8.37;46.67;100513.28;4979612;28;46059;-59
2021/12/02 11:57:20;;;;;;;;;0.00;0.00;;;;;8.32;47.21;100521.50;4979765;28;45321;-58
2021/12/02 11:59:45;;;;;;;;;1.50;0.00;;;;;8.18;47.94;100523.81;4979537;28;45425;-59
2021/12/02 12:02:16;;;;;;;;;1.25;0.00;;;;;8.13;46.97;100512.44;4979600;28;45424;-58
2021/12/02 12:04:54;;;;;;;;;0.00;0.00;;;;;8.09;47.97;100508.16;4979477;28;46205;-58
2021/12/02 12:07:21;;;;;;;;;1.75;0.00;;;;;8.14;48.28;100532.00;4979779;28;45358;-58
2021/12/02 12:09:46;;;;;;;;;0.25;0.00;;;;;8.09;47.98;100507.28;4979973;28;45168;-60
2021/12/02 12:12:11;;;;;;;;;0.00;0.00;;;;;8.09;47.90;100502.81;4979704;28;45484;-58
2021/12/02 12:14:42;;;;;;;;;1.50;0.00;;;;;8.16;48.05;100500.78;4979735;28;45469;-59
2021/12/02 12:17:10;;;;;;;;;1.75;0.75;;;;;8.19;48.39;100509.53;4979609;28;45334;-59
2021/12/02 12:19:45;;;;;;;;;1.00;0.00;;;;;8.15;48.63;100505.25;4979573;28;45327;-59
2021/12/02 12:22:35;;;;;;;;;1.25;0.00;;;;;8.25;49.51;100505.75;4979003;28;45539;-60
2021/12/02 12:25:06;;;;;;;;;0.00;0.00;;;;;8.30;48.69;100509.97;4979318;28;46373;-59
2021/12/02 12:27:34;;;;;;;;;1.75;0.00;;;;;8.34;49.03;100524.97;4979502;28;45223;-59
2021/12/02 12:30:10;;;;;;;;;0.50;0.00;;;;;8.43;48.46;100515.72;4979410;28;45358;-60
2021/12/02 12:38:27;;;;;;;;;1.50;0.00;;;;;8.63;47.72;100499.75;4979147;28;45440;-59
2021/12/02 12:41:01;;;;;;;;;0.00;0.00;;;;;8.60;47.71;100499.84;4982684;28;45325;-58
2021/12/02 12:43:33;;;;;;;;;0.00;0.00;;;;;8.59;47.98;100497.28;4982810;28;45389;-59
2021/12/02 12:46:08;;;;;;;;;1.00;0.00;;;;;8.56;48.59;100495.59;4983393;28;47152;-58
2021/12/02 12:48:34;;;;;;;;;1.00;1.00;;;;;8.50;47.95;100508.34;4982748;28;45387;-58
2021/12/02 12:51:30;;;;;;;;;2.00;0.75;;;;;8.51;48.50;100496.69;4982959;28;45376;-58
2021/12/02 12:53:57;;;;;;;;;2.25;0.00;;;;;8.51;47.58;100502.91;4970322;28;45504;-59
2021/12/02 12:56:40;;;;;;;;;1.50;0.00;;;;;8.52;47.64;100503.78;4982419;28;47384;-59
2021/12/02 12:59:08;;;;;;;;;0.00;0.00;;;;;8.49;48.47;100502.13;4982790;28;45250;-60
2021/12/02 13:01:35;;;;;;;;;0.00;0.00;;;;;8.50;48.10;100514.56;4969590;28;45330;-58
2021/12/02 13:04:03;;;;;;;;;1.00;0.00;;;;;8.56;47.06;100514.28;4982454;28;45479;-58
2021/12/02 13:06:32;;;;;;;;;1.50;0.00;;;;;8.47;46.42;100505.78;4982701;28;45363;-58
2021/12/02 13:09:02;;;;;;;;;1.00;0.00;;;;;8.46;45.85;100523.59;4982357;28;45429;-59
2021/12/02 13:11:32;;;;;;;;;2.00;0.00;;;;;8.46;45.33;100528.94;4982565;28;45271;-59
2021/12/02 13:14:01;;;;;;;;;1.50;0.00;;;;;8.45;45.48;100523.66;4982358;28;45420;-59
2021/12/02 13:16:32;;;;;;;;;0.50;0.00;;;;;8.47;45.40;100524.47;4982384;28;46609;-58
2021/12/02 13:19:10;;;;;;;;;0.00;0.00;;;;;8.49;44.88;100534.19;4982134;28;45312;-59
2021/12/02 13:21:36;;;;;;;;;1.00;0.00;;;;;8.28;43.93;100505.63;4982275;28;45287;-59
2021/12/02 13:24:10;;;;;;;;;0.00;0.00;;;;;8.29;44.38;100531.41;4982276;28;45329;-59
2021/12/02 13:26:54;;;;;;;;;1.00;0.00;;;;;8.37;44.61;100523.09;4982134;28;46495;-59
2021/12/02 13:29:28;;;;;;;;;0.00;0.00;;;;;8.46;45.15;100531.63;4982320;28;45330;-59
2021/12/02 13:31:56;;;;;;;;;0.00;0.00;;;;;8.55;44.98;100533.91;4981843;28;45306;-58
2021/12/02 13:34:24;;;;;;;;;0.75;0.00;;;;;8.66;44.54;100542.38;4981980;28;45404;-59
2021/12/02 13:37:05;;;;;;;;;1.00;0.00;;;;;8.69;43.73;100523.53;4981871;28;45268;-59
2021/12/02 13:39:34;;;;;;;;;0.00;0.00;;;;;8.81;43.86;100529.28;4982058;28;45500;-59
2021/12/02 13:42:06;;;;;;;;;2.00;0.00;;;;;8.85;44.27;100530.88;4981939;28;45353;-58
2021/12/02 13:44:38;;;;;;;;;0.00;0.00;;;;;8.91;43.81;100536.88;4981955;28;45353;-59
2021/12/02 13:47:12;;;;;;;;;0.00;0.00;;;;;9.00;43.24;100533.81;4981847;28;46330;-59
2021/12/02 13:49:40;;;;;;;;;0.00;0.00;;;;;9.04;42.33;100551.44;4981637;28;45357;-58
2021/12/02 13:52:22;;;;;;;;;0.00;0.00;;;;;9.05;43.75;100534.47;4982033;28;45330;-58
2021/12/02 13:54:57;;;;;;;;;1.00;0.00;;;;;9.13;42.18;100547.50;4981797;28;45992;-59
2021/12/02 13:57:31;;;;;;;;;3.00;0.00;;;;;9.16;42.72;100549.19;4981441;28;46944;-60
2021/12/02 13:59:56;;;;;;;;;1.75;0.00;;;;;9.17;42.29;100548.25;4981553;28;45405;-59
2021/12/02 14:02:24;;;;;;;;;0.00;0.00;;;;;9.18;42.68;100548.19;4981467;28;45262;-59
2021/12/02 14:04:51;;;;;;;;;1.00;0.00;;;;;9.10;42.71;100545.00;4981269;28;45324;-58
2021/12/02 14:07:19;;;;;;;;;1.25;0.00;;;;;9.03;42.58;100557.72;4981598;28;45282;-59
2021/12/02 14:09:47;;;;;;;;;0.00;0.00;;;;;8.97;43.26;100541.94;4981484;28;45242;-59
2021/12/02 14:12:13;;;;;;;;;0.00;0.00;;;;;8.93;42.25;100542.16;4981437;28;45432;-58
2021/12/02 14:14:57;;;;;;;;;0.25;0.00;;;;;9.01;43.87;100572.13;4981444;28;45327;-59
2021/12/02 14:17:22;;;;;;;;;2.00;0.00;;;;;8.95;42.94;100553.63;4981383;28;45334;-59
2021/12/02 14:20:02;;;;;;;;;0.00;0.00;;;;;8.96;43.27;100568.75;4981456;28;45302;-59
2021/12/02 14:22:28;;;;;;;;;0.00;0.00;;;;;8.88;42.93;100561.06;4981776;28;45246;-58
2021/12/02 14:24:53;;;;;;;;;1.00;0.00;;;;;8.84;43.62;100558.59;4981566;28;45401;-58
2021/12/02 14:27:18;;;;;;;;;0.50;0.00;;;;;8.84;43.26;100566.59;4980920;28;52920;-59
2021/12/02 14:29:44;;;;;;;;;0.00;0.00;;;;;8.79;43.50;100574.78;4981140;28;45281;-59
2021/12/02 14:32:09;;;;;;;;;1.00;0.00;;;;;8.78;43.61;100574.84;4981269;28;45207;-59
2021/12/02 14:34:35;;;;;;;;;1.00;0.00;;;;;8.77;43.89;100590.03;4980999;28;45535;-59
2021/12/02 14:37:00;;;;;;;;;0.00;0.00;;;;;8.72;44.49;100584.00;4980996;28;45379;-59
2021/12/02 14:39:26;;;;;;;;;0.00;0.00;;;;;8.62;44.83;100578.16;4981081;28;45223;-60
2021/12/02 14:41:57;;;;;;;;;0.00;0.00;;;;;8.61;44.37;100583.56;4981176;28;45408;-59
2021/12/02 14:44:24;;;;;;;;;0.00;0.00;;;;;8.59;45.29;100596.97;4981041;28;46108;-58
2021/12/02 14:46:52;;;;;;;;;0.00;0.00;;;;;8.60;45.79;100598.72;4980839;28;46472;-59
2021/12/02 14:49:31;;;;;;;;;0.25;0.00;;;;;8.57;45.78;100603.34;4980802;28;45282;-58
2021/12/02 14:52:07;;;;;;;;;2.25;1.00;;;;;8.62;46.10;100609.34;4981090;28;45239;-59
2021/12/02 14:54:36;;;;;;;;;0.00;0.00;;;;;8.63;46.13;100605.75;4980715;28;45267;-60
2021/12/02 14:57:05;;;;;;;;;0.00;0.00;;;;;8.47;46.79;100593.94;4980689;28;46230;-58
2021/12/02 14:59:36;;;;;;;;;1.25;0.00;;;;;8.54;46.75;100617.69;4980799;28;45274;-59
2021/12/02 15:02:16;;;;;;;;;0.00;0.00;;;;;8.52;47.14;100624.88;4980460;28;45336;-59
2021/12/02 15:04:42;;;;;;;;;0.00;0.00;;;;;8.51;47.16;100633.81;4980640;28;45337;-59
2021/12/02 15:07:19;;;;;;;;;0.25;0.25;;;;;8.51;47.60;100632.94;4980654;28;45404;-59
2021/12/02 15:10:12;;;;;;;;;0.00;0.00;;;;;8.45;47.68;100630.53;4980840;28;45248;-59
2021/12/02 15:12:39;;;;;;;;;0.00;0.00;;;;;8.50;47.92;100636.56;4980744;28;45318;-59
2021/12/02 15:15:08;;;;;;;;;0.50;0.50;;;;;8.51;47.93;100638.28;4980581;28;46016;-59
2021/12/02 15:17:42;;;;;;;;;0.00;0.00;;;;;8.54;48.04;100635.50;4980348;28;46215;-59
2021/12/02 15:20:11;;;;;;;;;1.00;0.00;;;;;8.47;47.96;100645.56;4980522;28;45356;-58
2021/12/02 15:22:37;;;;;;;;;0.00;0.00;;;;;8.44;48.16;100666.19;4980690;28;45247;-59
2021/12/02 15:25:11;;;;;;;;;0.00;0.00;;;;;8.42;48.59;100665.38;4980315;28;45447;-59
2021/12/02 15:27:58;;;;;;;;;0.00;0.00;;;;;8.34;48.92;100662.97;4978572;28;47320;-58
2021/12/02 15:30:24;;;;;;;;;0.75;0.75;;;;;8.40;48.46;100669.91;4979790;28;45533;-59
2021/12/02 15:32:50;;;;;;;;;1.00;0.50;;;;;8.39;49.13;100671.72;4980372;28;45248;-59
2021/12/02 15:35:16;;;;;;;;;0.00;0.00;;;;;8.40;48.77;100685.94;4980232;28;45506;-59
2021/12/02 15:37:41;;;;;;;;;0.00;0.00;;;;;8.31;49.24;100692.50;4980257;28;47177;-59
2021/12/02 15:40:07;;;;;;;;;0.00;0.00;;;;;8.21;49.48;100683.91;4980000;28;45373;-59
2021/12/02 15:42:34;;;;;;;;;1.00;0.00;;;;;8.31;49.58;100685.34;4980246;28;45314;-58
2021/12/02 15:44:59;;;;;;;;;0.00;0.00;;;;;8.29;49.77;100705.00;4979558;28;46168;-59
2021/12/02 15:47:25;;;;;;;;;0.25;0.00;;;;;8.20;50.40;100700.00;4980188;28;46521;-60
2021/12/02 15:50:00;;;;;;;;;2.00;0.50;;;;;8.25;50.20;100722.09;4979416;28;45916;-59
2021/12/02 15:52:29;;;;;;;;;0.25;0.25;;;;;8.24;50.46;100723.88;4980150;28;45341;-60
2021/12/02 15:54:55;;;;;;;;;0.00;0.00;;;;;8.21;50.77;100728.44;4979868;28;45441;-59
2021/12/02 15:57:20;;;;;;;;;2.75;0.25;;;;;8.22;50.89;100733.75;4979863;28;45313;-59
2021/12/02 15:59:46;;;;;;;;;1.50;0.50;;;;;8.20;50.74;100729.38;4980023;28;45247;-61
2021/12/02 16:02:25;;;;;;;;;0.75;0.75;;;;;8.21;50.93;100736.47;4980062;28;45496;-58
2021/12/02 16:07:31;;;;;;;;;2.25;1.00;;;;;8.29;51.46;100742.38;4979483;28;46081;-59
2021/12/02 16:12:37;;;;;;;;;2.25;1.00;;;;;8.26;51.06;100751.38;4979927;28;45230;-59
2021/12/02 16:15:06;;;;;;;;;0.25;0.25;;;;;8.14;51.49;100758.97;4978790;28;45429;-58
2021/12/02 16:17:34;;;;;;;;;0.00;0.00;;;;;8.13;51.81;100773.25;4979624;28;47561;-59
2021/12/02 16:19:59;;;;;;;;;2.00;0.50;;;;;8.13;51.38;100774.13;4979092;28;45338;-58
2021/12/02 16:22:25;;;;;;;;;1.00;1.00;;;;;8.12;51.17;100776.84;4979513;28;45306;-58
2021/12/02 16:24:52;;;;;;;;;2.00;1.00;;;;;8.09;50.88;100776.94;4979717;28;45488;-59
2021/12/02 16:27:18;;;;;;;;;0.75;0.75;;;;;8.01;51.06;100773.66;4978011;28;46070;-59
2021/12/02 16:29:44;;;;;;;;;1.00;1.00;;;;;8.05;51.58;100784.19;4979452;28;45326;-59
2021/12/02 16:32:09;;;;;;;;;0.25;0.25;;;;;8.10;51.74;100782.22;4979467;28;45264;-59
2021/12/02 16:34:35;;;;;;;;;0.75;0.50;;;;;8.06;51.32;100790.41;4979366;28;45243;-59
2021/12/02 16:37:00;;;;;;;;;1.00;0.00;;;;;8.07;51.34;100787.69;4979260;28;45205;-59
2021/12/02 16:39:34;;;;;;;;;1.25;0.25;;;;;8.11;51.02;100788.44;4979201;28;45342;-58
2021/12/02 16:42:01;;;;;;;;;3.00;1.50;;;;;8.02;51.06;100783.41;4979520;28;45227;-59
2021/12/02 16:44:27;;;;;;;;;0.75;0.75;;;;;8.00;51.16;100786.13;4979522;28;45440;-59
2021/12/02 16:46:52;;;;;;;;;1.00;1.00;;;;;7.94;51.42;100786.34;4977831;28;47082;-59
2021/12/02 16:49:21;;;;;;;;;0.50;0.00;;;;;7.99;50.89;100798.63;4978888;28;45368;-59
2021/12/02 16:51:47;;;;;;;;;2.75;2.00;;;;;8.10;51.36;100813.41;4979374;28;45333;-59
2021/12/02 16:54:12;;;;;;;;;1.50;1.50;;;;;8.01;51.68;100806.56;4978947;28;45231;-58
2021/12/02 16:56:37;;;;;;;;;1.00;1.00;;;;;8.06;51.59;100811.78;4979249;28;46335;-59
2021/12/02 16:59:03;;;;;;;;;1.00;1.00;;;;;8.07;51.26;100810.84;4979490;28;45278;-59
2021/12/02 17:01:28;;;;;;;;;2.00;1.00;;;;;7.98;51.95;100804.91;4979361;28;45484;-59
2021/12/02 17:03:56;;;;;;;;;1.00;1.00;;;;;7.97;51.95;100818.31;4979251;28;45238;-59
2021/12/02 17:06:22;;;;;;;;;2.00;1.00;;;;;7.86;51.77;100807.09;4979263;28;46311;-59
2021/12/02 17:08:48;;;;;;;;;1.00;1.00;;;;;7.88;51.79;100823.94;4979015;28;45332;-58
2021/12/02 17:11:13;;;;;;;;;1.75;1.75;;;;;7.83;52.50;100823.22;4979486;28;45330;-59
2021/12/02 17:13:39;;;;;;;;;2.50;1.00;;;;;7.93;52.54;100833.53;4979139;28;45264;-61
2021/12/02 17:16:05;;;;;;;;;1.50;1.50;;;;;7.86;52.47;100828.47;4978883;28;45352;-59
2021/12/02 17:18:31;;;;;;;;;2.00;1.00;;;;;7.90;52.36;100843.47;4978744;28;45426;-61
2021/12/02 17:20:56;;;;;;;;;6.25;2.00;;;;;7.82;52.52;100842.84;4979203;28;45309;-61
2021/12/02 17:23:25;;;;;;;;;2.00;2.00;;;;;7.81;52.86;100843.75;4979015;28;45225;-60
2021/12/02 17:25:50;;;;;;;;;2.25;1.00;;;;;7.81;52.52;100844.63;4980770;28;47172;-60
2021/12/02 17:28:16;;;;;;;;;2.50;2.50;;;;;7.75;52.87;100844.81;4982102;28;45339;-61